sensor_id;sensor_type;location;lat;lon;timestamp;pressure;altitude;pressure_sealevel;temperature;humidity
15308;BME280;7755;52.208;6.964;2023-09-19T00:02:14;100230.06;;;16.57;100.00
15308;BME280;7755;52.208;6.964;2023-09-19T00:06:17;100235.03;;;16.55;100.00
15308;BME280;7755;52.208;6.964;2023-09-19T00:10:22;100251.50;;;16.55;100.00
15308;BME280;7755;52.208;6.964;2023-09-19T00:14:25;100237.25;;;16.53;100.00
15308;BME280;7755;52.208;6.964;2023-09-19T00:18:30;100246.09;;;16.45;100.00
15308;BME280;7755;52.208;6.964;2023-09-19T00:22:40;100252.53;;;16.35;100.00
15308;BME280;7755;52.208;6.964;2023-09-19T00:26:46;100252.53;;;16.35;100.00
15308;BME280;7755;52.208;6.964;2023-09-19T00:30:50;100253.88;;;16.38;100.00
15308;BME280;7755;52.208;6.964;2023-09-19T00:34:54;100264.56;;;16.40;100.00
15308;BME280;7755;52.208;6.964;2023-09-19T00:38:57;100257.97;;;16.41;100.00
15308;BME280;7755;52.208;6.964;2023-09-19T00:43:01;100268.13;;;16.40;100.00
15308;BME280;7755;52.208;6.964;2023-09-19T00:47:03;100270.09;;;16.34;100.00
15308;BME280;7755;52.208;6.964;2023-09-19T00:51:09;100281.41;;;16.28;100.00
15308;BME280;7755;52.208;6.964;2023-09-19T00:55:14;100282.22;;;16.28;100.00
15308;BME280;7755;52.208;6.964;2023-09-19T00:59:17;100284.16;;;16.28;100.00
15308;BME280;7755;52.208;6.964;2023-09-19T01:03:20;100277.56;;;16.29;100.00
15308;BME280;7755;52.208;6.964;2023-09-19T01:07:24;100289.94;;;16.26;100.00
15308;BME280;7755;52.208;6.964;2023-09-19T01:11:33;100283.66;;;16.26;100.00
15308;BME280;7755;52.208;6.964;2023-09-19T01:15:50;100291.91;;;16.21;100.00
15308;BME280;7755;52.208;6.964;2023-09-19T01:20:06;100294.88;;;16.24;100.00
15308;BME280;7755;52.208;6.964;2023-09-19T01:24:34;100302.34;;;16.19;100.00
15308;BME280;7755;52.208;6.964;2023-09-19T01:29:01;100311.13;;;16.21;100.00
15308;BME280;7755;52.208;6.964;2023-09-19T01:33:10;100304.03;;;16.15;100.00
15308;BME280;7755;52.208;6.964;2023-09-19T01:37:13;100309.75;;;16.18;100.00
15308;BME280;7755;52.208;6.964;2023-09-19T01:41:26;100308.13;;;16.17;100.00
15308;BME280;7755;52.208;6.964;2023-09-19T01:45:35;100320.78;;;16.13;100.00
15308;BME280;7755;52.208;6.964;2023-09-19T01:49:50;100318.31;;;16.11;100.00
15308;BME280;7755;52.208;6.964;2023-09-19T01:53:58;100323.59;;;16.03;100.00
15308;BME280;7755;52.208;6.964;2023-09-19T01:58:06;100324.44;;;15.98;100.00
15308;BME280;7755;52.208;6.964;2023-09-19T02:02:11;100323.91;;;15.96;100.00
15308;BME280;7755;52.208;6.964;2023-09-19T02:06:16;100324.81;;;15.87;100.00
15308;BME280;7755;52.208;6.964;2023-09-19T02:10:20;100320.16;;;15.87;100.00
15308;BME280;7755;52.208;6.964;2023-09-19T02:14:23;100328.94;;;15.84;100.00
15308;BME280;7755;52.208;6.964;2023-09-19T02:18:26;100334.41;;;15.84;100.00
15308;BME280;7755;52.208;6.964;2023-09-19T02:22:31;100331.72;;;15.79;100.00
15308;BME280;7755;52.208;6.964;2023-09-19T02:26:34;100342.19;;;15.72;100.00
15308;BME280;7755;52.208;6.964;2023-09-19T02:30:37;100346.31;;;15.64;100.00
15308;BME280;7755;52.208;6.964;2023-09-19T02:34:40;100347.72;;;15.56;100.00
15308;BME280;7755;52.208;6.964;2023-09-19T02:38:45;100350.22;;;15.53;100.00
15308;BME280;7755;52.208;6.964;2023-09-19T02:42:48;100355.13;;;15.51;100.00
15308;BME280;7755;52.208;6.964;2023-09-19T02:46:51;100346.13;;;15.45;100.00
15308;BME280;7755;52.208;6.964;2023-09-19T02:50:54;100344.81;;;15.38;100.00
15308;BME280;7755;52.208;6.964;2023-09-19T02:54:58;100338.47;;;15.37;100.00
15308;BME280;7755;52.208;6.964;2023-09-19T02:59:03;100345.34;;;15.40;100.00
15308;BME280;7755;52.208;6.964;2023-09-19T03:03:07;100345.41;;;15.24;100.00
15308;BME280;7755;52.208;6.964;2023-09-19T03:07:11;100352.28;;;15.17;100.00
15308;BME280;7755;52.208;6.964;2023-09-19T03:11:16;100361.88;;;15.14;100.00
15308;BME280;7755;52.208;6.964;2023-09-19T03:15:26;100367.09;;;15.11;100.00
15308;BME280;7755;52.208;6.964;2023-09-19T03:19:30;100361.91;;;15.04;100.00
15308;BME280;7755;52.208;6.964;2023-09-19T03:23:35;100362.19;;;15.02;100.00
15308;BME280;7755;52.208;6.964;2023-09-19T03:27:40;100371.25;;;14.93;100.00
15308;BME280;7755;52.208;6.964;2023-09-19T03:31:43;100377.53;;;14.88;100.00
15308;BME280;7755;52.208;6.964;2023-09-19T03:35:51;100370.72;;;14.91;100.00
15308;BME280;7755;52.208;6.964;2023-09-19T03:39:55;100372.63;;;14.85;100.00
15308;BME280;7755;52.208;6.964;2023-09-19T03:43:59;100381.66;;;14.86;100.00
15308;BME280;7755;52.208;6.964;2023-09-19T03:48:08;100381.94;;;14.84;100.00
15308;BME280;7755;52.208;6.964;2023-09-19T03:52:10;100372.34;;;14.82;100.00
15308;BME280;7755;52.208;6.964;2023-09-19T03:56:13;100378.13;;;14.80;100.00
15308;BME280;7755;52.208;6.964;2023-09-19T04:00:18;100380.84;;;14.80;100.00
15308;BME280;7755;52.208;6.964;2023-09-19T04:04:23;100378.94;;;14.75;100.00
15308;BME280;7755;52.208;6.964;2023-09-19T04:08:27;100376.50;;;14.64;100.00
15308;BME280;7755;52.208;6.964;2023-09-19T04:12:31;100383.63;;;14.65;100.00
15308;BME280;7755;52.208;6.964;2023-09-19T04:16:36;100369.13;;;14.64;100.00
15308;BME280;7755;52.208;6.964;2023-09-19T04:20:40;100373.78;;;14.64;100.00
15308;BME280;7755;52.208;6.964;2023-09-19T04:24:43;100367.75;;;14.52;100.00
15308;BME280;7755;52.208;6.964;2023-09-19T04:28:46;100374.88;;;14.47;100.00
15308;BME280;7755;52.208;6.964;2023-09-19T04:32:50;100391.28;;;14.47;100.00
15308;BME280;7755;52.208;6.964;2023-09-19T04:36:53;100400.81;;;14.40;100.00
15308;BME280;7755;52.208;6.964;2023-09-19T04:40:58;100415.88;;;14.37;100.00
15308;BME280;7755;52.208;6.964;2023-09-19T04:45:01;100423.78;;;14.34;100.00
15308;BME280;7755;52.208;6.964;2023-09-19T04:49:06;100425.16;;;14.26;100.00
15308;BME280;7755;52.208;6.964;2023-09-19T04:53:09;100430.63;;;14.21;100.00
15308;BME280;7755;52.208;6.964;2023-09-19T04:57:11;100445.66;;;14.18;100.00
15308;BME280;7755;52.208;6.964;2023-09-19T05:01:14;100435.00;;;14.17;100.00
15308;BME280;7755;52.208;6.964;2023-09-19T05:05:19;100445.63;;;14.13;100.00
15308;BME280;7755;52.208;6.964;2023-09-19T05:09:24;100451.38;;;14.12;100.00
15308;BME280;7755;52.208;6.964;2023-09-19T05:13:27;100447.28;;;14.09;100.00
15308;BME280;7755;52.208;6.964;2023-09-19T05:17:30;100459.88;;;14.10;100.00
15308;BME280;7755;52.208;6.964;2023-09-19T05:21:35;100456.81;;;14.02;100.00
15308;BME280;7755;52.208;6.964;2023-09-19T05:25:40;100461.75;;;14.05;100.00
15308;BME280;7755;52.208;6.964;2023-09-19T05:29:44;100451.09;;;13.98;100.00
15308;BME280;7755;52.208;6.964;2023-09-19T05:33:47;100459.81;;;14.00;100.00
15308;BME280;7755;52.208;6.964;2023-09-19T05:37:52;100452.19;;;13.97;100.00
15308;BME280;7755;52.208;6.964;2023-09-19T05:41:55;100447.81;;;13.96;100.00
15308;BME280;7755;52.208;6.964;2023-09-19T05:45:59;100465.56;;;13.99;100.00
15308;BME280;7755;52.208;6.964;2023-09-19T05:50:02;100463.94;;;14.03;100.00
15308;BME280;7755;52.208;6.964;2023-09-19T05:54:08;100463.13;;;14.07;100.00
15308;BME280;7755;52.208;6.964;2023-09-19T05:58:12;100477.91;;;14.11;100.00
15308;BME280;7755;52.208;6.964;2023-09-19T06:02:18;100472.44;;;14.21;100.00
15308;BME280;7755;52.208;6.964;2023-09-19T06:06:22;100477.13;;;14.26;100.00
15308;BME280;7755;52.208;6.964;2023-09-19T06:10:27;100467.84;;;14.32;100.00
15308;BME280;7755;52.208;6.964;2023-09-19T06:14:31;100473.31;;;14.37;100.00
15308;BME280;7755;52.208;6.964;2023-09-19T06:18:33;100465.41;;;14.46;100.00
15308;BME280;7755;52.208;6.964;2023-09-19T06:22:36;100451.19;;;14.49;100.00
15308;BME280;7755;52.208;6.964;2023-09-19T06:26:41;100465.97;;;14.48;100.00
15308;BME280;7755;52.208;6.964;2023-09-19T06:30:44;100465.16;;;14.53;100.00
15308;BME280;7755;52.208;6.964;2023-09-19T06:34:51;100484.84;;;14.55;100.00
15308;BME280;7755;52.208;6.964;2023-09-19T06:38:56;100496.34;;;14.52;100.00
15308;BME280;7755;52.208;6.964;2023-09-19T06:43:00;100498.25;;;14.56;100.00
15308;BME280;7755;52.208;6.964;2023-09-19T06:47:03;100496.06;;;14.48;100.00
15308;BME280;7755;52.208;6.964;2023-09-19T06:51:08;100498.53;;;14.55;100.00
15308;BME280;7755;52.208;6.964;2023-09-19T06:55:11;100493.59;;;14.62;100.00
15308;BME280;7755;52.208;6.964;2023-09-19T06:59:16;100494.41;;;14.62;100.00
15308;BME280;7755;52.208;6.964;2023-09-19T07:03:19;100494.69;;;14.76;100.00
15308;BME280;7755;52.208;6.964;2023-09-19T07:07:23;100500.19;;;14.81;100.00
15308;BME280;7755;52.208;6.964;2023-09-19T07:11:26;100499.38;;;14.91;100.00
15308;BME280;7755;52.208;6.964;2023-09-19T07:15:33;100495.78;;;14.95;100.00
15308;BME280;7755;52.208;6.964;2023-09-19T07:19:37;100502.38;;;15.05;100.00
15308;BME280;7755;52.208;6.964;2023-09-19T07:23:40;100498.78;;;15.14;100.00
15308;BME280;7755;52.208;6.964;2023-09-19T07:27:43;100505.91;;;15.15;100.00
15308;BME280;7755;52.208;6.964;2023-09-19T07:31:47;100501.78;;;15.28;100.00
15308;BME280;7755;52.208;6.964;2023-09-19T07:35:51;100509.19;;;15.38;100.00
15308;BME280;7755;52.208;6.964;2023-09-19T07:39:55;100517.91;;;15.50;100.00
15308;BME280;7755;52.208;6.964;2023-09-19T07:43:58;100508.28;;;15.57;100.00
15308;BME280;7755;52.208;6.964;2023-09-19T07:48:02;100505.28;;;15.64;100.00
15308;BME280;7755;52.208;6.964;2023-09-19T07:52:08;100518.91;;;15.84;100.00
15308;BME280;7755;52.208;6.964;2023-09-19T07:56:11;100517.25;;;15.94;100.00
15308;BME280;7755;52.208;6.964;2023-09-19T08:00:15;100516.38;;;15.98;100.00
15308;BME280;7755;52.208;6.964;2023-09-19T08:04:19;100512.25;;;16.06;100.00
15308;BME280;7755;52.208;6.964;2023-09-19T08:08:22;100520.97;;;16.18;100.00
15308;BME280;7755;52.208;6.964;2023-09-19T08:12:25;100527.81;;;16.26;100.00
15308;BME280;7755;52.208;6.964;2023-09-19T08:16:28;100533.84;;;16.23;100.00
15308;BME280;7755;52.208;6.964;2023-09-19T08:20:33;100533.22;;;16.31;100.00
15308;BME280;7755;52.208;6.964;2023-09-19T08:24:37;100526.31;;;16.44;100.00
15308;BME280;7755;52.208;6.964;2023-09-19T08:28:40;100533.91;;;16.57;100.00
15308;BME280;7755;52.208;6.964;2023-09-19T08:32:43;100533.56;;;16.74;99.66
15308;BME280;7755;52.208;6.964;2023-09-19T08:36:47;100541.97;;;16.87;97.14
15308;BME280;7755;52.208;6.964;2023-09-19T08:40:50;100532.34;;;16.85;96.24
15308;BME280;7755;52.208;6.964;2023-09-19T08:44:55;100549.78;;;17.04;94.93
15308;BME280;7755;52.208;6.964;2023-09-19T08:49:03;100545.84;;;17.15;93.90
15308;BME280;7755;52.208;6.964;2023-09-19T08:53:11;100541.88;;;17.27;93.26
15308;BME280;7755;52.208;6.964;2023-09-19T08:57:18;100531.50;;;17.47;93.38
15308;BME280;7755;52.208;6.964;2023-09-19T09:01:23;100530.75;;;17.71;92.32
15308;BME280;7755;52.208;6.964;2023-09-19T09:05:30;100530.00;;;17.89;91.48
15308;BME280;7755;52.208;6.964;2023-09-19T09:09:35;100532.88;;;18.22;88.99
15308;BME280;7755;52.208;6.964;2023-09-19T09:13:39;100540.53;;;18.25;87.64
15308;BME280;7755;52.208;6.964;2023-09-19T09:17:43;100518.22;;;18.26;87.67
15308;BME280;7755;52.208;6.964;2023-09-19T09:21:46;100521.06;;;18.59;87.22
15308;BME280;7755;52.208;6.964;2023-09-19T09:25:51;100522.78;;;18.74;85.87
15308;BME280;7755;52.208;6.964;2023-09-19T09:29:58;100540.13;;;18.74;84.98
15308;BME280;7755;52.208;6.964;2023-09-19T09:34:01;100534.69;;;18.50;85.73
15308;BME280;7755;52.208;6.964;2023-09-19T09:38:04;100528.06;;;18.33;86.58
15308;BME280;7755;52.208;6.964;2023-09-19T09:42:29;100520.22;;;18.21;86.93
15308;BME280;7755;52.208;6.964;2023-09-19T09:46:34;100516.59;;;18.25;87.72
15308;BME280;7755;52.208;6.964;2023-09-19T09:51:00;100521.28;;;18.44;86.42
15308;BME280;7755;52.208;6.964;2023-09-19T09:55:05;100526.91;;;18.76;85.85
15308;BME280;7755;52.208;6.964;2023-09-19T09:59:11;100522.47;;;18.94;85.97
15308;BME280;7755;52.208;6.964;2023-09-19T10:03:19;100512.25;;;19.27;84.58
15308;BME280;7755;52.208;6.964;2023-09-19T10:07:25;100534.88;;;19.11;81.85
15308;BME280;7755;52.208;6.964;2023-09-19T10:11:34;100516.78;;;19.04;82.79
15308;BME280;7755;52.208;6.964;2023-09-19T10:15:43;100504.28;;;19.26;82.92
15308;BME280;7755;52.208;6.964;2023-09-19T10:19:54;100513.81;;;19.47;81.86
15308;BME280;7755;52.208;6.964;2023-09-19T10:24:00;100511.41;;;19.73;78.57
15308;BME280;7755;52.208;6.964;2023-09-19T10:28:06;100503.03;;;19.78;76.02
15308;BME280;7755;52.208;6.964;2023-09-19T10:32:15;100507.13;;;19.81;75.52
15308;BME280;7755;52.208;6.964;2023-09-19T10:36:24;100516.84;;;19.78;74.29
15308;BME280;7755;52.208;6.964;2023-09-19T10:40:28;100514.75;;;19.84;73.17
15308;BME280;7755;52.208;6.964;2023-09-19T10:44:33;100516.09;;;20.00;72.39
15308;BME280;7755;52.208;6.964;2023-09-19T10:48:41;100513.09;;;20.24;71.94
15308;BME280;7755;52.208;6.964;2023-09-19T10:52:46;100529.75;;;20.33;71.03
15308;BME280;7755;52.208;6.964;2023-09-19T10:56:53;100522.84;;;20.44;67.30
15308;BME280;7755;52.208;6.964;2023-09-19T11:00:57;100508.22;;;20.57;66.54
15308;BME280;7755;52.208;6.964;2023-09-19T11:05:17;100516.41;;;20.62;65.99
15308;BME280;7755;52.208;6.964;2023-09-19T11:09:20;100521.16;;;20.48;65.95
15308;BME280;7755;52.208;6.964;2023-09-19T11:13:28;100506.59;;;20.42;66.30
15308;BME280;7755;52.208;6.964;2023-09-19T11:17:33;100512.56;;;20.72;65.08
15308;BME280;7755;52.208;6.964;2023-09-19T11:21:52;100497.06;;;20.85;64.62
15308;BME280;7755;52.208;6.964;2023-09-19T11:25:56;100500.72;;;20.94;63.80
15308;BME280;7755;52.208;6.964;2023-09-19T11:30:25;100487.78;;;20.81;65.67
15308;BME280;7755;52.208;6.964;2023-09-19T11:34:45;100484.69;;;20.82;65.70
15308;BME280;7755;52.208;6.964;2023-09-19T11:39:00;100481.94;;;20.60;66.29
15308;BME280;7755;52.208;6.964;2023-09-19T11:43:29;100470.38;;;20.44;67.54
15308;BME280;7755;52.208;6.964;2023-09-19T11:47:45;100462.94;;;20.44;68.68
15308;BME280;7755;52.208;6.964;2023-09-19T11:51:50;100468.69;;;20.48;68.85
15308;BME280;7755;52.208;6.964;2023-09-19T11:55:55;100466.00;;;20.43;69.07
15308;BME280;7755;52.208;6.964;2023-09-19T11:59:57;100464.38;;;20.42;69.72
15308;BME280;7755;52.208;6.964;2023-09-19T12:04:01;100456.09;;;20.42;70.14
15308;BME280;7755;52.208;6.964;2023-09-19T12:08:07;100442.75;;;20.58;69.50
15308;BME280;7755;52.208;6.964;2023-09-19T12:12:19;100451.59;;;20.46;69.23
15308;BME280;7755;52.208;6.964;2023-09-19T12:16:22;100446.25;;;20.50;68.59
15308;BME280;7755;52.208;6.964;2023-09-19T12:20:42;100450.03;;;20.54;68.79
15308;BME280;7755;52.208;6.964;2023-09-19T12:24:51;100451.91;;;20.44;69.72
15308;BME280;7755;52.208;6.964;2023-09-19T12:28:57;100447.97;;;20.23;69.79
15308;BME280;7755;52.208;6.964;2023-09-19T12:33:00;100451.53;;;20.24;70.23
15308;BME280;7755;52.208;6.964;2023-09-19T12:37:06;100452.78;;;20.17;71.78
15308;BME280;7755;52.208;6.964;2023-09-19T12:41:13;100467.28;;;20.23;70.55
15308;BME280;7755;52.208;6.964;2023-09-19T12:45:17;100436.97;;;20.32;71.25
15308;BME280;7755;52.208;6.964;2023-09-19T12:49:20;100423.78;;;20.65;68.63
15308;BME280;7755;52.208;6.964;2023-09-19T12:53:27;100424.38;;;20.84;68.51
15308;BME280;7755;52.208;6.964;2023-09-19T12:57:31;100441.13;;;21.10;66.87
15308;BME280;7755;52.208;6.964;2023-09-19T13:01:37;100434.66;;;21.15;65.57
15308;BME280;7755;52.208;6.964;2023-09-19T13:05:49;100431.44;;;21.21;67.25
15308;BME280;7755;52.208;6.964;2023-09-19T13:10:02;100424.72;;;21.53;64.28
15308;BME280;7755;52.208;6.964;2023-09-19T13:14:17;100409.53;;;21.34;64.60
15308;BME280;7755;52.208;6.964;2023-09-19T13:18:21;100424.69;;;21.36;64.47
15308;BME280;7755;52.208;6.964;2023-09-19T13:22:39;100419.56;;;21.21;65.32
15308;BME280;7755;52.208;6.964;2023-09-19T13:26:42;100440.81;;;20.81;63.87
15308;BME280;7755;52.208;6.964;2023-09-19T13:30:45;100429.00;;;20.66;64.95
15308;BME280;7755;52.208;6.964;2023-09-19T13:34:50;100439.31;;;20.38;66.05
15308;BME280;7755;52.208;6.964;2023-09-19T13:38:54;100432.41;;;20.27;67.87
15308;BME280;7755;52.208;6.964;2023-09-19T13:42:57;100431.38;;;20.23;69.18
15308;BME280;7755;52.208;6.964;2023-09-19T13:46:59;100415.53;;;20.29;69.77
15308;BME280;7755;52.208;6.964;2023-09-19T13:51:05;100428.25;;;20.16;68.09
15308;BME280;7755;52.208;6.964;2023-09-19T13:55:08;100416.81;;;20.09;69.34
15308;BME280;7755;52.208;6.964;2023-09-19T13:59:11;100422.84;;;20.11;70.12
15308;BME280;7755;52.208;6.964;2023-09-19T14:03:14;100411.41;;;20.04;69.81
15308;BME280;7755;52.208;6.964;2023-09-19T14:07:18;100413.25;;;20.08;69.87
15308;BME280;7755;52.208;6.964;2023-09-19T14:11:21;100413.47;;;19.98;69.47
15308;BME280;7755;52.208;6.964;2023-09-19T14:15:24;100403.41;;;19.80;69.87
15308;BME280;7755;52.208;6.964;2023-09-19T14:19:31;100408.19;;;19.88;70.80
15308;BME280;7755;52.208;6.964;2023-09-19T14:23:36;100405.31;;;19.93;70.72
15308;BME280;7755;52.208;6.964;2023-09-19T14:27:38;100404.19;;;19.94;71.46
15308;BME280;7755;52.208;6.964;2023-09-19T14:31:42;100417.97;;;19.94;70.89
15308;BME280;7755;52.208;6.964;2023-09-19T14:35:45;100407.44;;;19.96;71.34
15308;BME280;7755;52.208;6.964;2023-09-19T14:39:49;100408.78;;;19.99;72.12
15308;BME280;7755;52.208;6.964;2023-09-19T14:43:52;100405.38;;;20.02;72.58
15308;BME280;7755;52.208;6.964;2023-09-19T14:47:56;100404.91;;;20.00;71.88
15308;BME280;7755;52.208;6.964;2023-09-19T14:51:59;100394.78;;;19.95;73.18
15308;BME280;7755;52.208;6.964;2023-09-19T14:56:07;100405.19;;;19.98;72.44
15308;BME280;7755;52.208;6.964;2023-09-19T15:00:12;100392.22;;;19.99;72.29
15308;BME280;7755;52.208;6.964;2023-09-19T15:04:15;100394.66;;;20.00;72.23
15308;BME280;7755;52.208;6.964;2023-09-19T15:08:18;100393.53;;;20.01;72.81
15308;BME280;7755;52.208;6.964;2023-09-19T15:12:22;100393.72;;;20.05;73.56
15308;BME280;7755;52.208;6.964;2023-09-19T15:16:25;100395.66;;;20.04;73.71
15308;BME280;7755;52.208;6.964;2023-09-19T15:20:29;100390.34;;;20.08;73.45
15308;BME280;7755;52.208;6.964;2023-09-19T15:24:32;100382.69;;;20.05;73.84
15308;BME280;7755;52.208;6.964;2023-09-19T15:28:36;100379.75;;;20.01;73.66
15308;BME280;7755;52.208;6.964;2023-09-19T15:32:39;100378.72;;;19.97;74.14
15308;BME280;7755;52.208;6.964;2023-09-19T15:36:43;100374.75;;;19.89;74.46
15308;BME280;7755;52.208;6.964;2023-09-19T15:40:47;100385.41;;;19.82;74.93
15308;BME280;7755;52.208;6.964;2023-09-19T15:44:51;100387.97;;;19.79;76.32
15308;BME280;7755;52.208;6.964;2023-09-19T15:48:54;100390.44;;;19.80;76.35
15308;BME280;7755;52.208;6.964;2023-09-19T15:52:57;100378.75;;;19.83;75.72
15308;BME280;7755;52.208;6.964;2023-09-19T15:57:00;100381.13;;;19.76;75.54
15308;BME280;7755;52.208;6.964;2023-09-19T16:01:05;100383.19;;;19.71;75.66
15308;BME280;7755;52.208;6.964;2023-09-19T16:05:10;100394.63;;;19.64;75.39
15308;BME280;7755;52.208;6.964;2023-09-19T16:09:13;100374.63;;;19.58;75.87
15308;BME280;7755;52.208;6.964;2023-09-19T16:13:17;100380.81;;;19.50;75.76
15308;BME280;7755;52.208;6.964;2023-09-19T16:17:21;100384.22;;;19.47;75.96
15308;BME280;7755;52.208;6.964;2023-09-19T16:21:25;100384.22;;;19.47;76.40
15308;BME280;7755;52.208;6.964;2023-09-19T16:25:28;100391.75;;;19.42;76.44
15308;BME280;7755;52.208;6.964;2023-09-19T16:29:31;100394.63;;;19.36;77.06
15308;BME280;7755;52.208;6.964;2023-09-19T16:33:36;100413.81;;;19.28;78.03
15308;BME280;7755;52.208;6.964;2023-09-19T16:37:39;100407.50;;;19.27;78.22
15308;BME280;7755;52.208;6.964;2023-09-19T16:41:42;100396.38;;;19.19;79.00
15308;BME280;7755;52.208;6.964;2023-09-19T16:45:52;100404.84;;;19.22;78.95
15308;BME280;7755;52.208;6.964;2023-09-19T16:49:56;100415.84;;;19.22;79.59
15308;BME280;7755;52.208;6.964;2023-09-19T16:54:00;100401.06;;;19.18;79.75
15308;BME280;7755;52.208;6.964;2023-09-19T16:58:05;100390.13;;;19.13;80.15
15308;BME280;7755;52.208;6.964;2023-09-19T17:02:08;100394.34;;;19.11;80.26
15308;BME280;7755;52.208;6.964;2023-09-19T17:06:14;100400.13;;;19.09;80.76
15308;BME280;7755;52.208;6.964;2023-09-19T17:10:17;100405.56;;;19.14;80.61
15308;BME280;7755;52.208;6.964;2023-09-19T17:14:20;100404.50;;;19.10;80.98
15308;BME280;7755;52.208;6.964;2023-09-19T17:18:23;100405.34;;;19.11;81.35
15308;BME280;7755;52.208;6.964;2023-09-19T17:22:27;100403.00;;;19.04;81.65
15308;BME280;7755;52.208;6.964;2023-09-19T17:26:29;100407.25;;;19.10;81.60
15308;BME280;7755;52.208;6.964;2023-09-19T17:30:36;100406.03;;;19.02;81.82
15308;BME280;7755;52.208;6.964;2023-09-19T17:34:40;100385.44;;;19.00;82.01
15308;BME280;7755;52.208;6.964;2023-09-19T17:38:46;100398.59;;;19.03;82.45
15308;BME280;7755;52.208;6.964;2023-09-19T17:42:49;100399.81;;;18.97;82.23
15308;BME280;7755;52.208;6.964;2023-09-19T17:46:52;100397.06;;;18.97;82.93
15308;BME280;7755;52.208;6.964;2023-09-19T17:50:59;100408.28;;;19.00;83.16
15308;BME280;7755;52.208;6.964;2023-09-19T17:55:05;100398.56;;;18.89;83.43
15308;BME280;7755;52.208;6.964;2023-09-19T17:59:07;100407.78;;;18.98;83.47
15308;BME280;7755;52.208;6.964;2023-09-19T18:03:10;100409.72;;;18.98;83.49
15308;BME280;7755;52.208;6.964;2023-09-19T18:07:14;100407.25;;;18.96;83.57
15308;BME280;7755;52.208;6.964;2023-09-19T18:11:18;100386.34;;;18.95;83.68
15308;BME280;7755;52.208;6.964;2023-09-19T18:15:25;100417.75;;;18.94;83.75
15308;BME280;7755;52.208;6.964;2023-09-19T18:19:34;100416.63;;;18.95;84.12
15308;BME280;7755;52.208;6.964;2023-09-19T18:23:37;100413.06;;;18.95;84.04
15308;BME280;7755;52.208;6.964;2023-09-19T18:27:41;100414.81;;;18.91;84.45
15308;BME280;7755;52.208;6.964;2023-09-19T18:31:44;100420.59;;;18.89;84.96
15308;BME280;7755;52.208;6.964;2023-09-19T18:35:47;100424.19;;;18.90;85.36
15308;BME280;7755;52.208;6.964;2023-09-19T18:39:49;100417.97;;;18.84;85.48
15308;BME280;7755;52.208;6.964;2023-09-19T18:43:54;100419.50;;;18.90;85.35
15308;BME280;7755;52.208;6.964;2023-09-19T18:47:57;100429.41;;;18.91;85.50
15308;BME280;7755;52.208;6.964;2023-09-19T18:52:00;100430.00;;;18.88;85.59
15308;BME280;7755;52.208;6.964;2023-09-19T18:56:05;100429.19;;;18.88;85.37
15308;BME280;7755;52.208;6.964;2023-09-19T19:00:10;100436.44;;;18.84;86.22
15308;BME280;7755;52.208;6.964;2023-09-19T19:04:16;100437.91;;;18.76;86.71
15308;BME280;7755;52.208;6.964;2023-09-19T19:08:20;100427.13;;;18.79;86.56
15308;BME280;7755;52.208;6.964;2023-09-19T19:12:23;100438.44;;;18.78;86.47
15308;BME280;7755;52.208;6.964;2023-09-19T19:16:27;100427.28;;;18.69;86.62
15308;BME280;7755;52.208;6.964;2023-09-19T19:20:31;100425.56;;;18.73;87.13
15308;BME280;7755;52.208;6.964;2023-09-19T19:24:34;100444.53;;;18.75;87.14
15308;BME280;7755;52.208;6.964;2023-09-19T19:28:38;100440.47;;;18.72;87.58
15308;BME280;7755;52.208;6.964;2023-09-19T19:32:44;100432.56;;;18.66;87.51
15308;BME280;7755;52.208;6.964;2023-09-19T19:36:46;100434.81;;;18.64;88.87
15308;BME280;7755;52.208;6.964;2023-09-19T19:40:57;100459.00;;;18.67;89.11
15308;BME280;7755;52.208;6.964;2023-09-19T19:45:00;100438.84;;;18.52;89.90
15308;BME280;7755;52.208;6.964;2023-09-19T19:49:04;100449.53;;;18.54;89.92
15308;BME280;7755;52.208;6.964;2023-09-19T19:53:09;100447.34;;;18.56;90.46
15308;BME280;7755;52.208;6.964;2023-09-19T19:57:12;100445.41;;;18.57;90.55
15308;BME280;7755;52.208;6.964;2023-09-19T20:01:15;100448.41;;;18.55;90.80
15308;BME280;7755;52.208;6.964;2023-09-19T20:05:19;100447.09;;;18.52;90.99
15308;BME280;7755;52.208;6.964;2023-09-19T20:09:22;100447.78;;;18.44;91.71
15308;BME280;7755;52.208;6.964;2023-09-19T20:13:25;100444.50;;;18.42;92.04
15308;BME280;7755;52.208;6.964;2023-09-19T20:17:28;100458.06;;;18.39;92.96
15308;BME280;7755;52.208;6.964;2023-09-19T20:21:33;100452.84;;;18.37;93.88
15308;BME280;7755;52.208;6.964;2023-09-19T20:25:36;100466.38;;;18.34;95.11
15308;BME280;7755;52.208;6.964;2023-09-19T20:29:39;100460.50;;;18.21;95.94
15308;BME280;7755;52.208;6.964;2023-09-19T20:33:43;100455.81;;;18.22;96.10
15308;BME280;7755;52.208;6.964;2023-09-19T20:37:48;100463.03;;;18.18;95.87
15308;BME280;7755;52.208;6.964;2023-09-19T20:41:51;100464.38;;;18.20;95.70
15308;BME280;7755;52.208;6.964;2023-09-19T20:45:54;100454.09;;;18.26;95.27
15308;BME280;7755;52.208;6.964;2023-09-19T20:49:57;100458.44;;;18.32;94.92
15308;BME280;7755;52.208;6.964;2023-09-19T20:54:01;100457.59;;;18.32;94.63
15308;BME280;7755;52.208;6.964;2023-09-19T20:58:04;100459.25;;;18.33;94.42
15308;BME280;7755;52.208;6.964;2023-09-19T21:02:07;100452.41;;;18.30;94.33
15308;BME280;7755;52.208;6.964;2023-09-19T21:06:11;100461.41;;;18.36;94.20
15308;BME280;7755;52.208;6.964;2023-09-19T21:10:16;100460.19;;;18.42;93.74
15308;BME280;7755;52.208;6.964;2023-09-19T21:14:20;100449.78;;;18.39;93.67
15308;BME280;7755;52.208;6.964;2023-09-19T21:18:22;100456.63;;;18.41;93.25
15308;BME280;7755;52.208;6.964;2023-09-19T21:22:26;100443.69;;;18.42;93.03
15308;BME280;7755;52.208;6.964;2023-09-19T21:26:31;100425.53;;;18.41;92.74
15308;BME280;7755;52.208;6.964;2023-09-19T21:30:34;100442.34;;;18.39;92.85